createdAt,value
2023-02-20T00:02:38.476Z,2.65
2023-02-20T00:05:24.500Z,2.25
2023-02-20T00:08:10.898Z,2.43
2023-02-20T00:10:57.357Z,2.42
2023-02-20T00:13:50.361Z,2.60
2023-02-20T00:16:36.152Z,3.00
2023-02-20T00:19:21.749Z,2.70
2023-02-20T00:22:07.194Z,2.60
2023-02-20T00:24:52.879Z,2.33
2023-02-20T00:27:38.365Z,2.30
2023-02-20T00:30:25.021Z,2.10
2023-02-20T00:33:10.134Z,2.40
2023-02-20T00:35:55.668Z,2.40
2023-02-20T00:38:43.195Z,2.22
2023-02-20T00:41:28.393Z,1.98
2023-02-20T00:44:13.863Z,2.30
2023-02-20T00:46:59.129Z,2.22
2023-02-20T00:49:44.440Z,2.67
2023-02-20T00:52:32.525Z,1.90
2023-02-20T00:55:17.828Z,2.30
2023-02-20T00:58:04.397Z,2.22
2023-02-20T01:46:44.580Z,1.95
2023-02-20T01:49:36.137Z,1.70
2023-02-20T01:52:26.149Z,2.03
2023-02-20T01:55:20.785Z,1.42
2023-02-20T01:58:12.278Z,1.95
2023-02-20T02:47:01.296Z,1.75
2023-02-20T02:49:55.481Z,1.83
2023-02-20T02:52:49.224Z,1.70
2023-02-20T02:55:34.977Z,2.00
2023-02-20T02:58:20.740Z,1.85
2023-02-20T03:47:09.292Z,1.30
2023-02-20T03:49:56.952Z,1.63
2023-02-20T03:52:42.849Z,1.77
2023-02-20T03:55:28.665Z,1.75
2023-02-20T03:58:18.959Z,1.70
2023-02-20T04:46:55.674Z,1.50
2023-02-20T04:49:41.236Z,1.63
2023-02-20T04:52:28.596Z,1.20
2023-02-20T04:55:15.038Z,1.50
2023-02-20T04:58:00.867Z,1.40
2023-02-20T06:39:09.710Z,1.60
2023-02-20T06:41:55.282Z,1.48
2023-02-20T06:44:40.367Z,1.50
2023-02-20T06:47:25.668Z,1.35
2023-02-20T06:50:11.057Z,1.80
2023-02-20T06:52:56.483Z,1.50
2023-02-20T06:55:41.675Z,1.70
2023-02-20T06:58:27.486Z,1.50
2023-02-20T07:01:12.985Z,1.63
2023-02-20T07:03:59.717Z,1.40
2023-02-20T07:06:45.694Z,2.00
